AXL603 TNCS-TNCM
Flight info
| Callsign | AXL603 |
|---|---|
| Flight time | 0h 9m |
| Altitude | 5000 |
| Route | VFR |
| Aircraft | BN2P/L-SDE3/L |
Departure
| Time | 2026-04-26 13:48 |
|---|---|
| Airport | Juancho E. Yrausquin Airport (TNCS) |
Arrival
| Time | 2026-04-26 13:57 |
|---|---|
| Airport | Princess Juliana International Airport (TNCM) |
| Time | Latitude | Longitude | Altitude | Speed | Heading |
|---|---|---|---|---|---|
| 2026-04-26 13:40 | 17.64486 | -63.22066 | 132 ft | 0 kts | 296° |
| 2026-04-26 13:42 | 17.64487 | -63.22068 | 132 ft | 0 kts | 306° |
| 2026-04-26 13:42 | 17.64490 | -63.22067 | 132 ft | 1 kts | 64° |
| 2026-04-26 13:42 | 17.64483 | -63.22035 | 128 ft | 3 kts | 31° |
| 2026-04-26 13:43 | 17.64496 | -63.22031 | 129 ft | 0 kts | 17° |
| 2026-04-26 13:46 | 17.64524 | -63.22025 | 131 ft | 5 kts | 324° |
| 2026-04-26 13:46 | 17.64571 | -63.22137 | 139 ft | 31 kts | 294° |
| 2026-04-26 13:47 | 17.64607 | -63.22213 | 143 ft | 4 kts | 202° |
| 2026-04-26 13:47 | 17.64526 | -63.22024 | 131 ft | 66 kts | 111° |
| 2026-04-26 13:47 | 17.64302 | -63.21528 | 327 ft | 74 kts | 96° |
| 2026-04-26 13:47 | 17.64514 | -63.21088 | 609 ft | 63 kts | 46° |
| 2026-04-26 13:48 | 17.64866 | -63.20788 | 791 ft | 74 kts | 35° |
| 2026-04-26 13:48 | 17.65408 | -63.20657 | 872 ft | 88 kts | 18° |
| 2026-04-26 13:48 | 17.66102 | -63.20470 | 981 ft | 114 kts | 19° |
| 2026-04-26 13:48 | 17.66925 | -63.20274 | 1151 ft | 128 kts | 15° |
| 2026-04-26 13:49 | 17.67826 | -63.20064 | 1317 ft | 137 kts | 16° |
| 2026-04-26 13:49 | 17.68773 | -63.19855 | 1509 ft | 141 kts | 14° |
| 2026-04-26 13:49 | 17.69758 | -63.19645 | 1663 ft | 146 kts | 16° |
| 2026-04-26 13:49 | 17.70729 | -63.19403 | 1886 ft | 144 kts | 17° |
| 2026-04-26 13:50 | 17.71719 | -63.19180 | 2056 ft | 147 kts | 15° |
| 2026-04-26 13:50 | 17.72742 | -63.18946 | 2151 ft | 152 kts | 14° |
| 2026-04-26 13:50 | 17.73786 | -63.18717 | 2275 ft | 154 kts | 14° |
| 2026-04-26 13:50 | 17.74816 | -63.18501 | 2400 ft | 155 kts | 14° |
| 2026-04-26 13:51 | 17.75903 | -63.18297 | 2411 ft | 160 kts | 12° |
| 2026-04-26 13:51 | 17.77004 | -63.18093 | 2474 ft | 159 kts | 13° |
| 2026-04-26 13:51 | 17.78097 | -63.17863 | 2459 ft | 163 kts | 14° |
| 2026-04-26 13:51 | 17.79205 | -63.17648 | 2512 ft | 161 kts | 12° |
| 2026-04-26 13:52 | 17.80306 | -63.17446 | 2591 ft | 161 kts | 14° |
| 2026-04-26 13:52 | 17.81444 | -63.17218 | 2421 ft | 172 kts | 14° |
| 2026-04-26 13:52 | 17.82622 | -63.17001 | 2300 ft | 175 kts | 13° |
| 2026-04-26 13:52 | 17.83804 | -63.16781 | 2279 ft | 174 kts | 13° |
| 2026-04-26 13:53 | 17.84997 | -63.16576 | 2278 ft | 171 kts | 12° |
| 2026-04-26 13:53 | 17.86184 | -63.16389 | 2236 ft | 173 kts | 11° |
| 2026-04-26 13:53 | 17.87362 | -63.16204 | 2180 ft | 173 kts | 12° |
| 2026-04-26 13:53 | 17.88561 | -63.16027 | 2125 ft | 173 kts | 11° |
| 2026-04-26 13:54 | 17.89759 | -63.15873 | 2107 ft | 170 kts | 11° |
| 2026-04-26 13:54 | 17.90925 | -63.15695 | 2137 ft | 166 kts | 11° |
| 2026-04-26 13:54 | 17.92095 | -63.15530 | 2007 ft | 171 kts | 11° |
| 2026-04-26 13:55 | 17.94486 | -63.15112 | 1741 ft | 178 kts | 12° |
| 2026-04-26 13:55 | 17.95282 | -63.14948 | 1736 ft | 174 kts | 14° |
| 2026-04-26 13:55 | 17.98051 | -63.14280 | 1488 ft | 176 kts | 17° |
| 2026-04-26 13:56 | 17.99251 | -63.13957 | 1301 ft | 181 kts | 19° |
| 2026-04-26 13:56 | 18.00467 | -63.13568 | 1102 ft | 182 kts | 21° |
| 2026-04-26 13:56 | 18.01629 | -63.13204 | 959 ft | 168 kts | 19° |
| 2026-04-26 13:56 | 18.02747 | -63.12864 | 656 ft | 168 kts | 19° |
| 2026-04-26 13:57 | 18.03766 | -63.12474 | 305 ft | 133 kts | 41° |
| 2026-04-26 13:57 | 18.03978 | -63.11690 | 33 ft | 108 kts | 83° |
| 2026-04-26 13:57 | 18.04067 | -63.11067 | 19 ft | 54 kts | 81° |
| 2026-04-26 13:57 | 18.04088 | -63.10950 | 18 ft | 2 kts | 328° |
| 2026-04-26 13:58 | 18.04133 | -63.10996 | 19 ft | 15 kts | 354° |
| 2026-04-26 13:58 | 18.04170 | -63.11030 | 18 ft | 5 kts | 260° |
| 2026-04-26 13:58 | 18.04164 | -63.11068 | 18 ft | 5 kts | 261° |
| 2026-04-26 13:58 | 18.04163 | -63.11093 | 18 ft | 4 kts | 297° |
| 2026-04-26 13:59 | 18.04230 | -63.11113 | 18 ft | 9 kts | 304° |
| 2026-04-26 13:59 | 18.04229 | -63.11168 | 18 ft | 6 kts | 261° |
| 2026-04-26 13:59 | 18.04224 | -63.11201 | 18 ft | 3 kts | 261° |
| 2026-04-26 14:00 | 18.04177 | -63.11208 | 18 ft | 0 kts | 170° |